sensor_id;sensor_type;location;lat;lon;timestamp;pressure;altitude;pressure_sealevel;temperature;humidity
9035;BME280;4552;43.422;24.592;2023-06-10T00:00:50;99401.50;;;17.57;96.05
9035;BME280;4552;43.422;24.592;2023-06-10T00:27:05;99398.78;;;17.05;100.00
9035;BME280;4552;43.422;24.592;2023-06-10T00:29:50;99389.28;;;17.18;100.00
9035;BME280;4552;43.422;24.592;2023-06-10T00:32:18;99394.28;;;17.24;100.00
9035;BME280;4552;43.422;24.592;2023-06-10T00:34:54;99397.97;;;17.39;99.84
9035;BME280;4552;43.422;24.592;2023-06-10T00:37:21;99394.97;;;17.47;100.00
9035;BME280;4552;43.422;24.592;2023-06-10T00:40:07;99384.91;;;17.53;99.87
9035;BME280;4552;43.422;24.592;2023-06-10T00:42:36;99386.88;;;17.50;99.24
9035;BME280;4552;43.422;24.592;2023-06-10T00:45:27;99394.94;;;17.64;99.27
9035;BME280;4552;43.422;24.592;2023-06-10T00:47:55;99381.34;;;17.54;99.37
9035;BME280;4552;43.422;24.592;2023-06-10T00:50:24;99391.72;;;17.59;99.93
9035;BME280;4552;43.422;24.592;2023-06-10T00:52:53;99395.44;;;17.72;98.72
9035;BME280;4552;43.422;24.592;2023-06-10T00:55:23;99397.44;;;17.84;97.55
9035;BME280;4552;43.422;24.592;2023-06-10T00:58:14;99394.63;;;17.87;97.72
9035;BME280;4552;43.422;24.592;2023-06-10T01:00:44;99390.91;;;17.91;97.29
9035;BME280;4552;43.422;24.592;2023-06-10T01:03:14;99399.16;;;18.02;96.97
9035;BME280;4552;43.422;24.592;2023-06-10T01:15:55;99398.53;;;17.97;97.60
9035;BME280;4552;43.422;24.592;2023-06-10T01:18:55;99397.50;;;17.99;97.37
9035;BME280;4552;43.422;24.592;2023-06-10T01:21:39;99396.75;;;17.97;97.55
9035;BME280;4552;43.422;24.592;2023-06-10T01:24:18;99400.53;;;18.09;96.14
9035;BME280;4552;43.422;24.592;2023-06-10T01:26:48;99407.69;;;18.07;96.12
9035;BME280;4552;43.422;24.592;2023-06-10T01:29:27;99407.88;;;17.87;97.24
9035;BME280;4552;43.422;24.592;2023-06-10T01:32:02;99406.72;;;17.75;98.31
9035;BME280;4552;43.422;24.592;2023-06-10T01:34:37;99410.06;;;17.62;100.00
9035;BME280;4552;43.422;24.592;2023-06-10T01:37:08;99404.00;;;17.60;99.76
9035;BME280;4552;43.422;24.592;2023-06-10T01:39:45;99381.28;;;17.56;99.18
9035;BME280;4552;43.422;24.592;2023-06-10T01:42:15;99400.31;;;17.62;99.17
9035;BME280;4552;43.422;24.592;2023-06-10T01:44:42;99398.63;;;17.61;99.59
9035;BME280;4552;43.422;24.592;2023-06-10T01:47:09;99396.22;;;17.57;98.67
9035;BME280;4552;43.422;24.592;2023-06-10T01:49:39;99398.53;;;17.63;98.65
9035;BME280;4552;43.422;24.592;2023-06-10T01:52:10;99396.53;;;17.68;98.65
9035;BME280;4552;43.422;24.592;2023-06-10T01:54:37;99406.56;;;17.78;97.59
9035;BME280;4552;43.422;24.592;2023-06-10T01:57:05;99404.47;;;17.68;98.18
9035;BME280;4552;43.422;24.592;2023-06-10T02:02:31;99408.59;;;17.73;98.82
9035;BME280;4552;43.422;24.592;2023-06-10T02:08:49;99410.41;;;17.73;100.00
9035;BME280;4552;43.422;24.592;2023-06-10T02:11:30;99406.16;;;17.69;100.00
9035;BME280;4552;43.422;24.592;2023-06-10T02:13:58;99415.28;;;17.63;100.00
9035;BME280;4552;43.422;24.592;2023-06-10T02:16:26;99415.19;;;17.48;100.00
9035;BME280;4552;43.422;24.592;2023-06-10T02:18:58;99416.81;;;17.50;100.00
9035;BME280;4552;43.422;24.592;2023-06-10T02:21:35;99424.22;;;17.61;100.00
9035;BME280;4552;43.422;24.592;2023-06-10T02:24:07;99419.88;;;17.77;100.00
9035;BME280;4552;43.422;24.592;2023-06-10T02:26:46;99407.59;;;17.76;100.00
9035;BME280;4552;43.422;24.592;2023-06-10T02:29:16;99417.31;;;17.92;100.00
9035;BME280;4552;43.422;24.592;2023-06-10T02:31:45;99413.63;;;17.95;100.00
9035;BME280;4552;43.422;24.592;2023-06-10T02:34:27;99425.66;;;18.02;100.00
9035;BME280;4552;43.422;24.592;2023-06-10T02:37:08;99417.22;;;18.11;100.00
9035;BME280;4552;43.422;24.592;2023-06-10T02:39:37;99413.63;;;18.12;100.00
9035;BME280;4552;43.422;24.592;2023-06-10T02:42:17;99406.00;;;18.06;100.00
9035;BME280;4552;43.422;24.592;2023-06-10T02:44:44;99406.22;;;18.01;100.00
9035;BME280;4552;43.422;24.592;2023-06-10T02:47:13;99405.28;;;18.02;100.00
9035;BME280;4552;43.422;24.592;2023-06-10T02:59:47;99412.31;;;18.68;100.00
9035;BME280;4552;43.422;24.592;2023-06-10T03:02:15;99419.69;;;18.79;100.00
9035;BME280;4552;43.422;24.592;2023-06-10T03:14:49;99419.53;;;19.13;100.00
9035;BME280;4552;43.422;24.592;2023-06-10T03:17:26;99422.09;;;18.99;100.00
9035;BME280;4552;43.422;24.592;2023-06-10T03:19:53;99425.34;;;18.88;100.00
9035;BME280;4552;43.422;24.592;2023-06-10T03:22:20;99420.88;;;18.89;100.00
9035;BME280;4552;43.422;24.592;2023-06-10T03:25:05;99424.91;;;18.96;100.00
9035;BME280;4552;43.422;24.592;2023-06-10T03:27:33;99423.34;;;18.92;100.00
9035;BME280;4552;43.422;24.592;2023-06-10T03:30:03;99421.03;;;18.86;100.00
9035;BME280;4552;43.422;24.592;2023-06-10T03:32:33;99427.13;;;18.88;100.00
9035;BME280;4552;43.422;24.592;2023-06-10T03:35:00;99423.44;;;18.90;100.00
9035;BME280;4552;43.422;24.592;2023-06-10T03:37:46;99430.06;;;18.99;100.00
9035;BME280;4552;43.422;24.592;2023-06-10T03:40:13;99420.13;;;18.87;100.00
9035;BME280;4552;43.422;24.592;2023-06-10T03:42:40;99429.16;;;18.83;100.00
9035;BME280;4552;43.422;24.592;2023-06-10T03:45:09;99434.66;;;18.95;100.00
9035;BME280;4552;43.422;24.592;2023-06-10T03:47:37;99438.63;;;19.04;100.00
9035;BME280;4552;43.422;24.592;2023-06-10T06:12:55;99467.50;;;21.55;94.57
9035;BME280;4552;43.422;24.592;2023-06-10T06:15:25;99464.28;;;21.50;94.58
9035;BME280;4552;43.422;24.592;2023-06-10T06:18:14;99463.50;;;21.48;95.17
9035;BME280;4552;43.422;24.592;2023-06-10T06:20:41;99463.91;;;21.95;95.09
9035;BME280;4552;43.422;24.592;2023-06-10T06:23:10;99464.28;;;22.28;92.63
9035;BME280;4552;43.422;24.592;2023-06-10T06:25:44;99458.66;;;22.58;90.83
9035;BME280;4552;43.422;24.592;2023-06-10T06:51:49;99450.28;;;21.46;95.62
9035;BME280;4552;43.422;24.592;2023-06-10T06:54:16;99438.22;;;21.67;95.17
9035;BME280;4552;43.422;24.592;2023-06-10T06:56:57;99454.72;;;21.60;94.33
9035;BME280;4552;43.422;24.592;2023-06-10T06:59:24;99444.88;;;21.48;95.12
9035;BME280;4552;43.422;24.592;2023-06-10T07:01:54;99453.56;;;21.64;94.09
9035;BME280;4552;43.422;24.592;2023-06-10T07:04:21;99448.97;;;21.66;94.69
9035;BME280;4552;43.422;24.592;2023-06-10T07:07:06;99449.25;;;21.75;95.78
9035;BME280;4552;43.422;24.592;2023-06-10T07:09:33;99449.19;;;21.89;94.37
9035;BME280;4552;43.422;24.592;2023-06-10T07:15:42;99431.41;;;21.90;93.53
9035;BME280;4552;43.422;24.592;2023-06-10T07:18:44;99451.91;;;22.14;94.09
9035;BME280;4552;43.422;24.592;2023-06-10T07:48:05;99445.19;;;22.72;89.12
9035;BME280;4552;43.422;24.592;2023-06-10T07:50:35;99449.03;;;22.80;90.79
9035;BME280;4552;43.422;24.592;2023-06-10T07:53:14;99456.84;;;22.83;88.65
9035;BME280;4552;43.422;24.592;2023-06-10T07:55:55;99447.88;;;22.47;89.81
9035;BME280;4552;43.422;24.592;2023-06-10T08:01:57;99455.88;;;22.59;91.18
9035;BME280;4552;43.422;24.592;2023-06-10T08:07:01;99460.06;;;23.12;89.07
9035;BME280;4552;43.422;24.592;2023-06-10T08:09:28;99449.16;;;23.27;88.89
9035;BME280;4552;43.422;24.592;2023-06-10T08:11:55;99456.56;;;23.47;85.16
9035;BME280;4552;43.422;24.592;2023-06-10T08:14:22;99464.00;;;23.31;85.07
9035;BME280;4552;43.422;24.592;2023-06-10T08:16:50;99445.31;;;23.06;85.62
9035;BME280;4552;43.422;24.592;2023-06-10T08:54:00;99446.03;;;23.80;84.75
9035;BME280;4552;43.422;24.592;2023-06-10T09:10:00;99442.53;;;24.15;81.57
9035;BME280;4552;43.422;24.592;2023-06-10T09:15:32;99426.75;;;24.34;78.65
9035;BME280;4552;43.422;24.592;2023-06-10T09:18:00;99422.31;;;24.11;77.91
9035;BME280;4552;43.422;24.592;2023-06-10T09:20:47;99429.38;;;24.01;79.68
9035;BME280;4552;43.422;24.592;2023-06-10T09:26:01;99420.44;;;24.24;80.07
9035;BME280;4552;43.422;24.592;2023-06-10T09:28:30;99421.00;;;24.73;78.69
9035;BME280;4552;43.422;24.592;2023-06-10T09:31:04;99420.72;;;24.87;77.06
9035;BME280;4552;43.422;24.592;2023-06-10T09:33:32;99420.38;;;24.80;76.20
9035;BME280;4552;43.422;24.592;2023-06-10T09:36:01;99415.59;;;24.62;77.78
9035;BME280;4552;43.422;24.592;2023-06-10T09:38:42;99418.75;;;24.67;77.86
9035;BME280;4552;43.422;24.592;2023-06-10T09:41:11;99412.91;;;24.95;76.90
9035;BME280;4552;43.422;24.592;2023-06-10T09:51:12;99410.72;;;25.11;74.85
9035;BME280;4552;43.422;24.592;2023-06-10T09:53:39;99405.88;;;24.83;75.44
9035;BME280;4552;43.422;24.592;2023-06-10T09:56:06;99414.91;;;24.71;76.75
9035;BME280;4552;43.422;24.592;2023-06-10T09:58:49;99412.66;;;24.65;77.58
9035;BME280;4552;43.422;24.592;2023-06-10T10:01:20;99407.31;;;24.65;77.34
9035;BME280;4552;43.422;24.592;2023-06-10T10:03:48;99401.50;;;24.82;78.28
9035;BME280;4552;43.422;24.592;2023-06-10T10:06:16;99401.69;;;25.12;76.07
9035;BME280;4552;43.422;24.592;2023-06-10T10:08:45;99405.03;;;25.47;75.84
9035;BME280;4552;43.422;24.592;2023-06-10T10:11:16;99396.34;;;25.55;75.80
9035;BME280;4552;43.422;24.592;2023-06-10T10:23:53;99396.06;;;25.37;74.27
9035;BME280;4552;43.422;24.592;2023-06-10T10:26:32;99394.53;;;25.55;72.67
9035;BME280;4552;43.422;24.592;2023-06-10T10:29:11;99384.34;;;25.38;70.32
9035;BME280;4552;43.422;24.592;2023-06-10T10:31:42;99392.88;;;25.43;70.45
9035;BME280;4552;43.422;24.592;2023-06-10T10:34:47;99389.47;;;25.41;70.40
9035;BME280;4552;43.422;24.592;2023-06-10T10:37:24;99379.97;;;25.26;69.96
9035;BME280;4552;43.422;24.592;2023-06-10T10:39:53;99381.16;;;25.44;71.06
9035;BME280;4552;43.422;24.592;2023-06-10T10:42:20;99379.44;;;25.75;68.14
9035;BME280;4552;43.422;24.592;2023-06-10T10:51:33;99370.28;;;25.77;53.90
9035;BME280;4552;43.422;24.592;2023-06-10T10:54:32;99363.97;;;25.99;52.44
9035;BME280;4552;43.422;24.592;2023-06-10T10:57:15;99363.44;;;26.05;52.42
9035;BME280;4552;43.422;24.592;2023-06-10T11:03:06;99354.16;;;26.09;53.19
9035;BME280;4552;43.422;24.592;2023-06-10T11:05:39;99357.41;;;26.33;52.76
9035;BME280;4552;43.422;24.592;2023-06-10T11:08:08;99357.72;;;26.69;51.82
9035;BME280;4552;43.422;24.592;2023-06-10T11:10:51;99349.72;;;26.58;52.54
9035;BME280;4552;43.422;24.592;2023-06-10T11:13:21;99344.59;;;26.85;53.57
9035;BME280;4552;43.422;24.592;2023-06-10T11:15:49;99345.78;;;27.11;52.94
9035;BME280;4552;43.422;24.592;2023-06-10T11:18:23;99342.69;;;27.16;52.91
9035;BME280;4552;43.422;24.592;2023-06-10T11:21:08;99338.31;;;27.25;52.23
9035;BME280;4552;43.422;24.592;2023-06-10T11:23:40;99337.03;;;27.00;52.27
9035;BME280;4552;43.422;24.592;2023-06-10T11:26:21;99334.31;;;26.90;54.08
9035;BME280;4552;43.422;24.592;2023-06-10T11:36:08;99317.78;;;27.04;50.94
9035;BME280;4552;43.422;24.592;2023-06-10T11:38:35;99304.53;;;27.41;51.40
9035;BME280;4552;43.422;24.592;2023-06-10T11:41:03;99303.13;;;27.37;49.65
9035;BME280;4552;43.422;24.592;2023-06-10T11:43:31;99307.09;;;27.43;50.48
9035;BME280;4552;43.422;24.592;2023-06-10T11:45:58;99288.53;;;27.11;48.76
9035;BME280;4552;43.422;24.592;2023-06-10T11:48:25;99289.78;;;27.07;49.99
9035;BME280;4552;43.422;24.592;2023-06-10T11:50:54;99277.03;;;26.99;48.78
9035;BME280;4552;43.422;24.592;2023-06-10T11:53:56;99290.91;;;27.04;48.85
9035;BME280;4552;43.422;24.592;2023-06-10T11:56:24;99285.28;;;27.27;48.17
9035;BME280;4552;43.422;24.592;2023-06-10T11:58:53;99287.22;;;27.05;47.15
9035;BME280;4552;43.422;24.592;2023-06-10T12:01:21;99290.91;;;27.24;47.72
9035;BME280;4552;43.422;24.592;2023-06-10T12:03:56;99276.78;;;27.50;46.48
9035;BME280;4552;43.422;24.592;2023-06-10T12:06:24;99281.28;;;27.69;45.35
9035;BME280;4552;43.422;24.592;2023-06-10T12:08:51;99285.44;;;27.35;45.62
9035;BME280;4552;43.422;24.592;2023-06-10T12:11:19;99282.34;;;27.30;45.86
9035;BME280;4552;43.422;24.592;2023-06-10T12:20:36;99282.47;;;28.49;44.18
9035;BME280;4552;43.422;24.592;2023-06-10T12:23:27;99270.97;;;28.20;44.90
9035;BME280;4552;43.422;24.592;2023-06-10T12:25:55;99282.28;;;28.23;45.76
9035;BME280;4552;43.422;24.592;2023-06-10T12:28:50;99284.41;;;27.74;45.15
9035;BME280;4552;43.422;24.592;2023-06-10T12:31:17;99283.31;;;27.48;46.29
9035;BME280;4552;43.422;24.592;2023-06-10T12:33:44;99289.81;;;27.55;46.75
9035;BME280;4552;43.422;24.592;2023-06-10T12:36:16;99282.69;;;26.87;48.98
9035;BME280;4552;43.422;24.592;2023-06-10T12:39:03;99271.47;;;26.23;54.16
9035;BME280;4552;43.422;24.592;2023-06-10T12:41:30;99285.81;;;25.30;62.46
9035;BME280;4552;43.422;24.592;2023-06-10T12:51:21;99285.16;;;20.81;94.78
9035;BME280;4552;43.422;24.592;2023-06-10T12:53:59;99281.28;;;20.45;99.77
9035;BME280;4552;43.422;24.592;2023-06-10T12:56:26;99272.66;;;19.72;100.00
9035;BME280;4552;43.422;24.592;2023-06-10T12:58:56;99258.22;;;19.18;100.00
9035;BME280;4552;43.422;24.592;2023-06-10T13:01:24;99260.50;;;19.10;100.00
9035;BME280;4552;43.422;24.592;2023-06-10T13:03:50;99259.78;;;19.22;100.00
9035;BME280;4552;43.422;24.592;2023-06-10T13:06:17;99281.91;;;19.37;100.00
9035;BME280;4552;43.422;24.592;2023-06-10T13:08:47;99279.44;;;19.34;100.00
9035;BME280;4552;43.422;24.592;2023-06-10T13:11:13;99278.41;;;19.36;100.00
9035;BME280;4552;43.422;24.592;2023-06-10T13:17:16;99258.34;;;19.60;100.00
9035;BME280;4552;43.422;24.592;2023-06-10T13:19:46;99241.47;;;19.61;100.00
9035;BME280;4552;43.422;24.592;2023-06-10T13:22:37;99255.13;;;19.83;100.00
9035;BME280;4552;43.422;24.592;2023-06-10T13:25:06;99253.41;;;19.96;100.00
9035;BME280;4552;43.422;24.592;2023-06-10T13:27:33;99252.28;;;20.00;100.00
9035;BME280;4552;43.422;24.592;2023-06-10T13:36:44;99261.47;;;20.63;100.00
9035;BME280;4552;43.422;24.592;2023-06-10T13:39:12;99251.09;;;20.73;100.00
9035;BME280;4552;43.422;24.592;2023-06-10T13:41:41;99262.59;;;20.74;100.00
9035;BME280;4552;43.422;24.592;2023-06-10T13:44:29;99253.78;;;21.00;100.00
9035;BME280;4552;43.422;24.592;2023-06-10T13:46:59;99247.66;;;21.24;100.00
9035;BME280;4552;43.422;24.592;2023-06-10T13:49:26;99248.41;;;21.51;100.00
9035;BME280;4552;43.422;24.592;2023-06-10T13:51:53;99230.94;;;21.72;100.00
9035;BME280;4552;43.422;24.592;2023-06-10T13:54:20;99240.41;;;22.14;100.00
9035;BME280;4552;43.422;24.592;2023-06-10T13:56:56;99239.03;;;22.45;100.00
9035;BME280;4552;43.422;24.592;2023-06-10T14:19:48;99218.16;;;23.20;87.02
9035;BME280;4552;43.422;24.592;2023-06-10T14:22:15;99206.97;;;23.04;91.03
9035;BME280;4552;43.422;24.592;2023-06-10T14:24:56;99215.25;;;23.23;91.94
9035;BME280;4552;43.422;24.592;2023-06-10T14:27:30;99215.56;;;23.31;95.45
9035;BME280;4552;43.422;24.592;2023-06-10T14:29:57;99215.81;;;23.39;90.24
9035;BME280;4552;43.422;24.592;2023-06-10T14:32:24;99208.81;;;23.60;89.20
9035;BME280;4552;43.422;24.592;2023-06-10T14:35:14;99213.44;;;23.80;88.82
9035;BME280;4552;43.422;24.592;2023-06-10T14:37:41;99200.19;;;23.90;88.52
9035;BME280;4552;43.422;24.592;2023-06-10T14:40:09;99206.28;;;23.81;89.13
9035;BME280;4552;43.422;24.592;2023-06-10T14:42:41;99203.13;;;23.87;88.34
9035;BME280;4552;43.422;24.592;2023-06-10T14:58:37;99198.97;;;24.70;77.84
9035;BME280;4552;43.422;24.592;2023-06-10T15:01:04;99195.59;;;24.68;77.92
9035;BME280;4552;43.422;24.592;2023-06-10T15:03:31;99201.84;;;24.89;72.89
9035;BME280;4552;43.422;24.592;2023-06-10T15:05:58;99202.22;;;24.84;79.84
9035;BME280;4552;43.422;24.592;2023-06-10T15:08:39;99199.34;;;24.76;75.64
9035;BME280;4552;43.422;24.592;2023-06-10T15:11:06;99207.94;;;24.91;77.05
9035;BME280;4552;43.422;24.592;2023-06-10T15:13:32;99204.34;;;25.01;73.31
9035;BME280;4552;43.422;24.592;2023-06-10T15:16:01;99192.50;;;25.04;74.53
9035;BME280;4552;43.422;24.592;2023-06-10T15:18:40;99195.19;;;25.04;72.86
9035;BME280;4552;43.422;24.592;2023-06-10T15:21:07;99200.50;;;25.15;68.71
9035;BME280;4552;43.422;24.592;2023-06-10T15:23:34;99197.59;;;25.07;70.10
9035;BME280;4552;43.422;24.592;2023-06-10T15:26:16;99209.19;;;25.28;66.25
9035;BME280;4552;43.422;24.592;2023-06-10T15:35:40;99188.38;;;25.52;69.33
9035;BME280;4552;43.422;24.592;2023-06-10T15:38:07;99189.53;;;25.59;69.00
9035;BME280;4552;43.422;24.592;2023-06-10T15:40:34;99179.56;;;25.71;70.14
9035;BME280;4552;43.422;24.592;2023-06-10T15:43:01;99181.66;;;25.67;74.30
9035;BME280;4552;43.422;24.592;2023-06-10T15:52:26;99178.75;;;26.10;62.53
9035;BME280;4552;43.422;24.592;2023-06-10T15:54:53;99181.56;;;26.08;64.45
9035;BME280;4552;43.422;24.592;2023-06-10T15:57:20;99178.22;;;26.16;63.46
9035;BME280;4552;43.422;24.592;2023-06-10T16:03:09;99191.38;;;25.98;59.49
9035;BME280;4552;43.422;24.592;2023-06-10T16:05:36;99194.81;;;26.00;56.83
9035;BME280;4552;43.422;24.592;2023-06-10T16:08:04;99193.72;;;26.12;54.79
9035;BME280;4552;43.422;24.592;2023-06-10T16:10:36;99195.00;;;25.88;58.90
9035;BME280;4552;43.422;24.592;2023-06-10T16:13:03;99192.13;;;25.70;58.29
9035;BME280;4552;43.422;24.592;2023-06-10T16:15:31;99200.31;;;25.69;57.31
9035;BME280;4552;43.422;24.592;2023-06-10T16:18:00;99208.53;;;26.07;54.35
9035;BME280;4552;43.422;24.592;2023-06-10T16:20:26;99222.56;;;26.20;53.92
9035;BME280;4552;43.422;24.592;2023-06-10T16:23:09;99221.19;;;26.25;52.72
9035;BME280;4552;43.422;24.592;2023-06-10T16:25:36;99213.00;;;26.27;51.21
9035;BME280;4552;43.422;24.592;2023-06-10T16:28:22;99212.97;;;26.17;51.08
9035;BME280;4552;43.422;24.592;2023-06-10T16:30:49;99223.50;;;26.09;51.93
9035;BME280;4552;43.422;24.592;2023-06-10T16:33:16;99224.38;;;25.89;52.11
9035;BME280;4552;43.422;24.592;2023-06-10T16:35:43;99223.16;;;25.73;53.30
9035;BME280;4552;43.422;24.592;2023-06-10T16:38:37;99214.38;;;25.61;53.18
9035;BME280;4552;43.422;24.592;2023-06-10T16:41:23;99218.72;;;25.83;52.59
9035;BME280;4552;43.422;24.592;2023-06-10T16:53:56;99238.16;;;25.34;53.99
9035;BME280;4552;43.422;24.592;2023-06-10T16:56:23;99241.34;;;25.28;55.10
9035;BME280;4552;43.422;24.592;2023-06-10T17:05:34;99231.03;;;24.92;79.20
9035;BME280;4552;43.422;24.592;2023-06-10T17:08:04;99228.22;;;24.73;81.63
9035;BME280;4552;43.422;24.592;2023-06-10T17:10:44;99221.88;;;24.52;83.72
9035;BME280;4552;43.422;24.592;2023-06-10T17:13:10;99222.91;;;24.40;84.05
9035;BME280;4552;43.422;24.592;2023-06-10T17:15:37;99239.00;;;24.18;85.30
9035;BME280;4552;43.422;24.592;2023-06-10T17:18:10;99243.38;;;24.08;84.03
9035;BME280;4552;43.422;24.592;2023-06-10T17:20:37;99253.31;;;24.17;83.41
9035;BME280;4552;43.422;24.592;2023-06-10T17:23:04;99248.47;;;24.11;84.25
9035;BME280;4552;43.422;24.592;2023-06-10T17:25:32;99250.78;;;24.04;81.29
9035;BME280;4552;43.422;24.592;2023-06-10T17:28:20;99244.09;;;23.99;77.21
9035;BME280;4552;43.422;24.592;2023-06-10T17:37:31;99241.31;;;23.43;87.18
9035;BME280;4552;43.422;24.592;2023-06-10T17:39:58;99250.56;;;23.39;86.78
9035;BME280;4552;43.422;24.592;2023-06-10T17:42:25;99243.84;;;23.34;78.72
9035;BME280;4552;43.422;24.592;2023-06-10T17:54:43;99241.38;;;22.96;86.38
9035;BME280;4552;43.422;24.592;2023-06-10T17:57:25;99245.78;;;22.74;88.46
9035;BME280;4552;43.422;24.592;2023-06-10T18:03:39;99251.41;;;22.58;86.67
9035;BME280;4552;43.422;24.592;2023-06-10T18:06:06;99249.28;;;22.38;88.33
9035;BME280;4552;43.422;24.592;2023-06-10T18:08:33;99254.00;;;22.35;89.99
9035;BME280;4552;43.422;24.592;2023-06-10T18:11:24;99248.72;;;22.22;90.20
9035;BME280;4552;43.422;24.592;2023-06-10T18:13:52;99262.53;;;22.27;90.04
9035;BME280;4552;43.422;24.592;2023-06-10T18:16:21;99262.44;;;22.28;90.64
9035;BME280;4552;43.422;24.592;2023-06-10T18:19:08;99260.22;;;22.10;91.14
9035;BME280;4552;43.422;24.592;2023-06-10T18:21:36;99257.16;;;22.16;89.39
9035;BME280;4552;43.422;24.592;2023-06-10T18:24:03;99267.72;;;22.17;89.87
9035;BME280;4552;43.422;24.592;2023-06-10T18:26:49;99265.50;;;21.99;91.54
9035;BME280;4552;43.422;24.592;2023-06-10T18:36:02;99259.94;;;21.52;93.84
9035;BME280;4552;43.422;24.592;2023-06-10T18:38:32;99274.31;;;21.62;93.07
9035;BME280;4552;43.422;24.592;2023-06-10T18:41:04;99258.31;;;21.49;94.17
9035;BME280;4552;43.422;24.592;2023-06-10T18:43:33;99253.53;;;21.42;94.61
9035;BME280;4552;43.422;24.592;2023-06-10T18:46:00;99266.97;;;21.53;95.68
9035;BME280;4552;43.422;24.592;2023-06-10T18:48:27;99276.19;;;21.47;96.24
9035;BME280;4552;43.422;24.592;2023-06-10T18:50:54;99272.44;;;21.25;98.12
9035;BME280;4552;43.422;24.592;2023-06-10T18:53:24;99264.53;;;21.11;99.30
9035;BME280;4552;43.422;24.592;2023-06-10T18:55:53;99274.19;;;21.26;99.41
9035;BME280;4552;43.422;24.592;2023-06-10T18:58:21;99269.78;;;21.25;98.82
9035;BME280;4552;43.422;24.592;2023-06-10T19:04:11;99278.03;;;21.08;99.27
9035;BME280;4552;43.422;24.592;2023-06-10T19:06:38;99280.59;;;20.97;100.00
9035;BME280;4552;43.422;24.592;2023-06-10T19:09:21;99277.13;;;20.95;100.00
9035;BME280;4552;43.422;24.592;2023-06-10T19:11:48;99291.25;;;20.97;100.00
9035;BME280;4552;43.422;24.592;2023-06-10T19:24:35;99289.00;;;20.77;100.00
9035;BME280;4552;43.422;24.592;2023-06-10T19:27:04;99308.56;;;20.76;100.00
9035;BME280;4552;43.422;24.592;2023-06-10T19:49:44;99319.03;;;21.32;94.76
9035;BME280;4552;43.422;24.592;2023-06-10T19:52:11;99310.91;;;21.21;97.22
9035;BME280;4552;43.422;24.592;2023-06-10T19:54:38;99305.78;;;21.18;96.19
9035;BME280;4552;43.422;24.592;2023-06-10T19:57:06;99302.56;;;21.13;95.82
9035;BME280;4552;43.422;24.592;2023-06-10T20:03:31;99309.25;;;21.06;96.90
9035;BME280;4552;43.422;24.592;2023-06-10T20:05:59;99313.63;;;21.07;95.50
9035;BME280;4552;43.422;24.592;2023-06-10T20:08:28;99322.75;;;21.42;92.59
9035;BME280;4552;43.422;24.592;2023-06-10T20:10:55;99314.56;;;21.45;90.74
9035;BME280;4552;43.422;24.592;2023-06-10T20:13:27;99316.25;;;21.46;90.92
9035;BME280;4552;43.422;24.592;2023-06-10T20:26:02;99314.59;;;20.92;94.32
9035;BME280;4552;43.422;24.592;2023-06-10T20:28:29;99315.91;;;20.99;95.16
9035;BME280;4552;43.422;24.592;2023-06-10T20:31:08;99319.91;;;20.92;94.02
9035;BME280;4552;43.422;24.592;2023-06-10T20:33:35;99310.72;;;20.83;95.23
9035;BME280;4552;43.422;24.592;2023-06-10T20:36:02;99311.41;;;21.13;94.13
9035;BME280;4552;43.422;24.592;2023-06-10T20:38:48;99312.34;;;21.12;94.24
9035;BME280;4552;43.422;24.592;2023-06-10T20:41:17;99313.00;;;21.16;94.35
9035;BME280;4552;43.422;24.592;2023-06-10T20:43:47;99314.91;;;21.14;94.47
9035;BME280;4552;43.422;24.592;2023-06-10T20:46:20;99311.91;;;21.06;94.62
9035;BME280;4552;43.422;24.592;2023-06-10T20:49:00;99302.63;;;20.85;95.54
9035;BME280;4552;43.422;24.592;2023-06-10T20:51:46;99312.91;;;20.91;96.83
9035;BME280;4552;43.422;24.592;2023-06-10T20:54:15;99321.13;;;20.74;99.08
9035;BME280;4552;43.422;24.592;2023-06-10T20:56:44;99312.38;;;20.72;100.00
9035;BME280;4552;43.422;24.592;2023-06-10T20:59:11;99318.34;;;20.75;100.00
9035;BME280;4552;43.422;24.592;2023-06-10T21:01:39;99322.13;;;20.58;100.00
9035;BME280;4552;43.422;24.592;2023-06-10T21:04:08;99314.38;;;20.13;100.00
9035;BME280;4552;43.422;24.592;2023-06-10T21:06:35;99303.34;;;19.91;100.00
9035;BME280;4552;43.422;24.592;2023-06-10T21:09:02;99322.88;;;19.90;100.00
9035;BME280;4552;43.422;24.592;2023-06-10T21:11:29;99324.41;;;19.94;100.00
9035;BME280;4552;43.422;24.592;2023-06-10T21:13:58;99331.72;;;20.19;100.00
9035;BME280;4552;43.422;24.592;2023-06-10T21:16:27;99325.56;;;20.32;100.00
9035;BME280;4552;43.422;24.592;2023-06-10T21:18:59;99326.59;;;20.30;100.00
9035;BME280;4552;43.422;24.592;2023-06-10T21:21:26;99317.53;;;20.46;100.00
9035;BME280;4552;43.422;24.592;2023-06-10T21:23:53;99323.53;;;20.50;100.00
9035;BME280;4552;43.422;24.592;2023-06-10T21:26:40;99325.13;;;20.52;100.00
9035;BME280;4552;43.422;24.592;2023-06-10T21:29:08;99304.53;;;20.56;100.00
9035;BME280;4552;43.422;24.592;2023-06-10T21:36:57;99324.63;;;20.19;100.00
9035;BME280;4552;43.422;24.592;2023-06-10T21:39:24;99331.06;;;20.15;100.00
9035;BME280;4552;43.422;24.592;2023-06-10T21:42:13;99313.50;;;20.13;100.00
9035;BME280;4552;43.422;24.592;2023-06-10T21:44:44;99321.28;;;20.30;100.00
9035;BME280;4552;43.422;24.592;2023-06-10T21:47:11;99317.50;;;20.34;100.00
9035;BME280;4552;43.422;24.592;2023-06-10T21:49:52;99315.88;;;20.17;100.00
9035;BME280;4552;43.422;24.592;2023-06-10T21:52:19;99326.50;;;20.17;100.00
9035;BME280;4552;43.422;24.592;2023-06-10T21:54:46;99310.16;;;19.95;100.00
9035;BME280;4552;43.422;24.592;2023-06-10T21:57:13;99321.47;;;20.13;100.00
9035;BME280;4552;43.422;24.592;2023-06-10T21:59:51;99317.94;;;20.12;100.00
9035;BME280;4552;43.422;24.592;2023-06-10T22:02:18;99328.47;;;20.00;100.00
9035;BME280;4552;43.422;24.592;2023-06-10T22:28:19;99321.44;;;19.12;100.00
9035;BME280;4552;43.422;24.592;2023-06-10T22:30:46;99321.97;;;19.03;100.00
9035;BME280;4552;43.422;24.592;2023-06-10T22:33:15;99326.47;;;19.16;100.00
9035;BME280;4552;43.422;24.592;2023-06-10T22:39:13;99327.09;;;19.06;100.00
9035;BME280;4552;43.422;24.592;2023-06-10T22:41:41;99316.75;;;19.01;100.00
9035;BME280;4552;43.422;24.592;2023-06-10T22:44:30;99314.59;;;18.92;100.00